Terminal Aerodrome Forecast
Issued by NWS

Home | Current Version | Previous Version | Text Only | Print | Product List | Glossary On
Versions: 1 2 3 4 5 6 7 8 9 10 11 12
000
FTUS44 KLIX 311700
TAFMCB
TAF
KMCB 311735Z 3118/0118 13005KT P6SM SCT140
     FM010500 13005KT P6SM BKN050
     FM011100 14004KT P6SM OVC035
     FM011400 16006KT P6SM VCSH OVC025=

USA.gov is the U.S. government's official web portal to all federal, state and local government web resources and services.